sensor_id;sensor_type;location;lat;lon;timestamp;temperature;humidity
80931;DHT22;70388;42.698;23.324;2023-06-26T11:16:18;25.70;45.00
80931;DHT22;70388;42.698;23.324;2023-06-26T11:18:44;26.00;45.60
80931;DHT22;70388;42.698;23.324;2023-06-26T11:21:12;26.30;45.00
80931;DHT22;70388;42.698;23.324;2023-06-26T11:23:40;26.50;44.10
80931;DHT22;70388;42.698;23.324;2023-06-26T11:26:18;26.80;43.50
80931;DHT22;70388;42.698;23.324;2023-06-26T11:28:56;27.00;43.30
80931;DHT22;70388;42.698;23.324;2023-06-26T11:31:35;27.30;42.90
80931;DHT22;70388;42.698;23.324;2023-06-26T11:34:10;27.40;41.70
80931;DHT22;70388;42.698;23.324;2023-06-26T11:36:37;27.40;41.50
80931;DHT22;70388;42.698;23.324;2023-06-26T11:39:06;27.40;40.90
80931;DHT22;70388;42.698;23.324;2023-06-26T11:41:34;27.40;41.20
80931;DHT22;70388;42.698;23.324;2023-06-26T11:44:08;27.40;40.60
80931;DHT22;70388;42.698;23.324;2023-06-26T11:46:36;27.40;42.30
80931;DHT22;70388;42.698;23.324;2023-06-26T11:49:06;27.40;41.00
80931;DHT22;70388;42.698;23.324;2023-06-26T11:51:32;27.40;41.00
80931;DHT22;70388;42.698;23.324;2023-06-26T11:54:00;27.60;41.10
80931;DHT22;70388;42.698;23.324;2023-06-26T11:56:26;27.50;42.20
80931;DHT22;70388;42.698;23.324;2023-06-26T12:01:21;27.70;41.40
80931;DHT22;70388;42.698;23.324;2023-06-26T12:03:48;27.70;41.20
80931;DHT22;70388;42.698;23.324;2023-06-26T12:06:15;27.50;41.80
80931;DHT22;70388;42.698;23.324;2023-06-26T12:08:41;27.60;41.10
80931;DHT22;70388;42.698;23.324;2023-06-26T12:11:07;27.70;41.10
80931;DHT22;70388;42.698;23.324;2023-06-26T12:13:33;27.70;40.50
80931;DHT22;70388;42.698;23.324;2023-06-26T12:15:59;27.80;40.50
80931;DHT22;70388;42.698;23.324;2023-06-26T12:18:25;27.90;40.60
80931;DHT22;70388;42.698;23.324;2023-06-26T12:20:52;27.90;40.20
80931;DHT22;70388;42.698;23.324;2023-06-26T12:23:18;27.90;40.00
80931;DHT22;70388;42.698;23.324;2023-06-26T12:25:43;27.80;40.10
80931;DHT22;70388;42.698;23.324;2023-06-26T12:28:18;27.60;40.70
80931;DHT22;70388;42.698;23.324;2023-06-26T12:31:11;27.50;40.70
80931;DHT22;70388;42.698;23.324;2023-06-26T12:33:33;27.50;40.90
80931;DHT22;70388;42.698;23.324;2023-06-26T12:35:59;27.20;41.80
80931;DHT22;70388;42.698;23.324;2023-06-26T12:38:33;27.10;42.30
80931;DHT22;70388;42.698;23.324;2023-06-26T12:40:58;26.80;42.50
80931;DHT22;70388;42.698;23.324;2023-06-26T12:43:26;26.80;42.80
80931;DHT22;70388;42.698;23.324;2023-06-26T12:45:55;26.90;43.00
80931;DHT22;70388;42.698;23.324;2023-06-26T12:48:35;26.90;43.30
80931;DHT22;70388;42.698;23.324;2023-06-26T12:51:11;26.80;43.70
80931;DHT22;70388;42.698;23.324;2023-06-26T12:53:37;26.80;44.20
80931;DHT22;70388;42.698;23.324;2023-06-26T12:56:05;26.80;44.50
80931;DHT22;70388;42.698;23.324;2023-06-26T12:58:32;26.70;44.50
80931;DHT22;70388;42.698;23.324;2023-06-26T13:00:57;26.70;44.70
80931;DHT22;70388;42.698;23.324;2023-06-26T13:03:23;26.60;44.80
80931;DHT22;70388;42.698;23.324;2023-06-26T13:05:49;26.70;45.10
80931;DHT22;70388;42.698;23.324;2023-06-26T13:08:16;26.70;44.70
80931;DHT22;70388;42.698;23.324;2023-06-26T13:10:43;26.80;44.90
80931;DHT22;70388;42.698;23.324;2023-06-26T13:13:10;26.90;44.40
80931;DHT22;70388;42.698;23.324;2023-06-26T13:15:36;26.80;44.50
80931;DHT22;70388;42.698;23.324;2023-06-26T13:18:02;27.00;44.30
80931;DHT22;70388;42.698;23.324;2023-06-26T13:20:27;27.00;43.90
80931;DHT22;70388;42.698;23.324;2023-06-26T13:22:54;27.00;44.00
80931;DHT22;70388;42.698;23.324;2023-06-26T13:25:20;27.00;43.80
80931;DHT22;70388;42.698;23.324;2023-06-26T13:27:46;26.90;43.60
80931;DHT22;70388;42.698;23.324;2023-06-26T13:30:13;26.80;44.00
80931;DHT22;70388;42.698;23.324;2023-06-26T13:32:39;26.80;44.20
80931;DHT22;70388;42.698;23.324;2023-06-26T13:35:05;26.80;44.20
80931;DHT22;70388;42.698;23.324;2023-06-26T13:37:31;26.90;44.60
80931;DHT22;70388;42.698;23.324;2023-06-26T13:39:59;27.00;44.50
80931;DHT22;70388;42.698;23.324;2023-06-26T13:42:27;27.00;44.20
80931;DHT22;70388;42.698;23.324;2023-06-26T13:44:53;27.10;44.50
80931;DHT22;70388;42.698;23.324;2023-06-26T13:47:19;27.10;44.80
80931;DHT22;70388;42.698;23.324;2023-06-26T13:49:45;27.10;43.90
80931;DHT22;70388;42.698;23.324;2023-06-26T13:52:10;26.90;44.20
80931;DHT22;70388;42.698;23.324;2023-06-26T13:54:37;26.80;44.70
80931;DHT22;70388;42.698;23.324;2023-06-26T13:57:05;26.70;45.20
80931;DHT22;70388;42.698;23.324;2023-06-26T13:59:32;26.60;45.60
80931;DHT22;70388;42.698;23.324;2023-06-26T14:01:58;26.50;45.90
80931;DHT22;70388;42.698;23.324;2023-06-26T14:04:24;26.60;45.70
80931;DHT22;70388;42.698;23.324;2023-06-26T14:06:50;26.80;45.20
80931;DHT22;70388;42.698;23.324;2023-06-26T14:09:16;27.20;43.60
80931;DHT22;70388;42.698;23.324;2023-06-26T14:11:42;27.50;42.80
80931;DHT22;70388;42.698;23.324;2023-06-26T14:14:08;27.60;42.20
80931;DHT22;70388;42.698;23.324;2023-06-26T14:16:34;27.70;41.80
80931;DHT22;70388;42.698;23.324;2023-06-26T14:19:00;27.80;42.10
80931;DHT22;70388;42.698;23.324;2023-06-26T14:21:25;28.00;41.60
80931;DHT22;70388;42.698;23.324;2023-06-26T14:23:53;28.10;41.90
80931;DHT22;70388;42.698;23.324;2023-06-26T14:26:19;28.20;41.90
80931;DHT22;70388;42.698;23.324;2023-06-26T14:28:44;28.30;41.70
80931;DHT22;70388;42.698;23.324;2023-06-26T14:31:10;28.30;41.40
80931;DHT22;70388;42.698;23.324;2023-06-26T14:33:36;28.30;41.40
80931;DHT22;70388;42.698;23.324;2023-06-26T14:36:02;27.80;44.60
80931;DHT22;70388;42.698;23.324;2023-06-26T14:38:28;27.20;48.70
80931;DHT22;70388;42.698;23.324;2023-06-26T14:40:53;26.70;50.50
80931;DHT22;70388;42.698;23.324;2023-06-26T14:43:19;26.40;53.50
80931;DHT22;70388;42.698;23.324;2023-06-26T14:45:45;26.00;55.30
80931;DHT22;70388;42.698;23.324;2023-06-26T14:48:10;25.20;55.10
80931;DHT22;70388;42.698;23.324;2023-06-26T14:50:36;24.60;58.00
80931;DHT22;70388;42.698;23.324;2023-06-26T14:53:01;24.30;59.50
80931;DHT22;70388;42.698;23.324;2023-06-26T14:55:28;24.00;60.00
80931;DHT22;70388;42.698;23.324;2023-06-26T14:57:53;23.70;61.10
80931;DHT22;70388;42.698;23.324;2023-06-26T15:00:19;23.40;62.80
80931;DHT22;70388;42.698;23.324;2023-06-26T15:02:45;23.20;64.30
80931;DHT22;70388;42.698;23.324;2023-06-26T15:05:10;23.00;66.30
80931;DHT22;70388;42.698;23.324;2023-06-26T15:07:36;22.80;66.90
80931;DHT22;70388;42.698;23.324;2023-06-26T15:10:02;22.50;76.80
80931;DHT22;70388;42.698;23.324;2023-06-26T15:12:27;22.20;72.00
80931;DHT22;70388;42.698;23.324;2023-06-26T15:14:53;22.20;70.80
80931;DHT22;70388;42.698;23.324;2023-06-26T15:17:19;22.30;70.20
80931;DHT22;70388;42.698;23.324;2023-06-26T15:19:44;22.30;68.30
80931;DHT22;70388;42.698;23.324;2023-06-26T15:22:10;22.20;69.00
80931;DHT22;70388;42.698;23.324;2023-06-26T15:24:36;22.20;75.50
80931;DHT22;70388;42.698;23.324;2023-06-26T15:27:01;22.20;69.40
80931;DHT22;70388;42.698;23.324;2023-06-26T15:29:27;22.20;68.70
80931;DHT22;70388;42.698;23.324;2023-06-26T15:31:53;22.20;69.90
80931;DHT22;70388;42.698;23.324;2023-06-26T15:34:19;22.20;68.90
80931;DHT22;70388;42.698;23.324;2023-06-26T15:36:45;22.30;85.80
80931;DHT22;70388;42.698;23.324;2023-06-26T15:39:10;22.40;73.10
80931;DHT22;70388;42.698;23.324;2023-06-26T15:41:36;22.40;71.90
80931;DHT22;70388;42.698;23.324;2023-06-26T15:44:03;22.50;70.20
80931;DHT22;70388;42.698;23.324;2023-06-26T15:46:29;22.60;72.60
80931;DHT22;70388;42.698;23.324;2023-06-26T15:48:55;22.80;71.90
80931;DHT22;70388;42.698;23.324;2023-06-26T15:51:21;23.00;72.40
80931;DHT22;70388;42.698;23.324;2023-06-26T15:53:46;23.00;71.00
80931;DHT22;70388;42.698;23.324;2023-06-26T15:56:12;23.00;69.90
80931;DHT22;70388;42.698;23.324;2023-06-26T15:58:39;23.20;66.60
80931;DHT22;70388;42.698;23.324;2023-06-26T16:01:10;23.40;65.20
80931;DHT22;70388;42.698;23.324;2023-06-26T16:03:37;23.50;64.70
80931;DHT22;70388;42.698;23.324;2023-06-26T16:06:03;23.50;65.20
80931;DHT22;70388;42.698;23.324;2023-06-26T16:08:29;23.40;65.90
80931;DHT22;70388;42.698;23.324;2023-06-26T16:10:55;23.40;68.70
80931;DHT22;70388;42.698;23.324;2023-06-26T16:13:20;23.30;67.30
80931;DHT22;70388;42.698;23.324;2023-06-26T16:15:48;23.40;65.20
80931;DHT22;70388;42.698;23.324;2023-06-26T16:18:14;23.30;68.00
80931;DHT22;70388;42.698;23.324;2023-06-26T16:20:40;23.40;67.80
80931;DHT22;70388;42.698;23.324;2023-06-26T16:23:06;23.20;67.70
80931;DHT22;70388;42.698;23.324;2023-06-26T16:25:32;23.10;65.60
80931;DHT22;70388;42.698;23.324;2023-06-26T16:27:58;23.00;65.00
80931;DHT22;70388;42.698;23.324;2023-06-26T16:30:24;23.20;63.00
80931;DHT22;70388;42.698;23.324;2023-06-26T16:32:50;23.40;61.70
80931;DHT22;70388;42.698;23.324;2023-06-26T16:35:16;23.60;61.70
80931;DHT22;70388;42.698;23.324;2023-06-26T16:37:41;23.60;62.00
80931;DHT22;70388;42.698;23.324;2023-06-26T16:40:07;23.60;62.20
80931;DHT22;70388;42.698;23.324;2023-06-26T16:42:33;23.50;62.40
80931;DHT22;70388;42.698;23.324;2023-06-26T16:44:59;23.50;62.40
80931;DHT22;70388;42.698;23.324;2023-06-26T16:47:25;23.50;62.30
80931;DHT22;70388;42.698;23.324;2023-06-26T16:49:52;23.50;61.80
80931;DHT22;70388;42.698;23.324;2023-06-26T16:52:18;23.60;62.60
80931;DHT22;70388;42.698;23.324;2023-06-26T16:54:44;23.70;61.50
80931;DHT22;70388;42.698;23.324;2023-06-26T16:57:11;23.60;61.90
80931;DHT22;70388;42.698;23.324;2023-06-26T16:59:37;23.70;62.70
80931;DHT22;70388;42.698;23.324;2023-06-26T17:02:02;23.60;61.90
80931;DHT22;70388;42.698;23.324;2023-06-26T17:04:29;23.60;62.20
80931;DHT22;70388;42.698;23.324;2023-06-26T17:06:55;23.60;63.20
80931;DHT22;70388;42.698;23.324;2023-06-26T17:09:21;23.60;61.50
80931;DHT22;70388;42.698;23.324;2023-06-26T17:11:47;23.60;61.00
80931;DHT22;70388;42.698;23.324;2023-06-26T17:14:12;23.70;61.00
80931;DHT22;70388;42.698;23.324;2023-06-26T17:16:38;23.80;61.40
80931;DHT22;70388;42.698;23.324;2023-06-26T17:19:04;23.80;60.90
80931;DHT22;70388;42.698;23.324;2023-06-26T17:21:31;23.70;62.60
80931;DHT22;70388;42.698;23.324;2023-06-26T17:23:57;23.80;63.30
80931;DHT22;70388;42.698;23.324;2023-06-26T17:26:22;23.80;63.10
80931;DHT22;70388;42.698;23.324;2023-06-26T17:28:49;23.80;63.40
80931;DHT22;70388;42.698;23.324;2023-06-26T17:31:15;23.80;63.20
80931;DHT22;70388;42.698;23.324;2023-06-26T17:33:40;23.80;63.30
80931;DHT22;70388;42.698;23.324;2023-06-26T17:36:06;23.80;63.40
80931;DHT22;70388;42.698;23.324;2023-06-26T17:38:32;23.80;63.90
80931;DHT22;70388;42.698;23.324;2023-06-26T17:40:59;23.80;63.90
80931;DHT22;70388;42.698;23.324;2023-06-26T17:43:24;23.80;64.20
80931;DHT22;70388;42.698;23.324;2023-06-26T17:45:50;23.90;64.00
80931;DHT22;70388;42.698;23.324;2023-06-26T17:48:16;23.80;64.20
80931;DHT22;70388;42.698;23.324;2023-06-26T17:50:41;23.80;64.90
80931;DHT22;70388;42.698;23.324;2023-06-26T17:53:07;23.70;65.90
80931;DHT22;70388;42.698;23.324;2023-06-26T17:55:33;23.70;66.30
80931;DHT22;70388;42.698;23.324;2023-06-26T17:57:58;23.60;66.20
80931;DHT22;70388;42.698;23.324;2023-06-26T18:00:24;23.60;65.40
80931;DHT22;70388;42.698;23.324;2023-06-26T18:02:50;23.40;65.80
80931;DHT22;70388;42.698;23.324;2023-06-26T18:05:16;23.30;67.40
80931;DHT22;70388;42.698;23.324;2023-06-26T18:07:42;23.40;68.70
80931;DHT22;70388;42.698;23.324;2023-06-26T18:10:08;23.40;69.80
80931;DHT22;70388;42.698;23.324;2023-06-26T18:12:35;23.10;67.50
80931;DHT22;70388;42.698;23.324;2023-06-26T18:15:01;22.90;68.70
80931;DHT22;70388;42.698;23.324;2023-06-26T18:17:28;22.60;71.30
80931;DHT22;70388;42.698;23.324;2023-06-26T18:19:55;22.60;75.60
80931;DHT22;70388;42.698;23.324;2023-06-26T18:22:21;22.60;75.10
80931;DHT22;70388;42.698;23.324;2023-06-26T18:24:46;22.70;71.40
80931;DHT22;70388;42.698;23.324;2023-06-26T18:27:12;22.70;71.30
80931;DHT22;70388;42.698;23.324;2023-06-26T18:29:38;22.50;71.30
80931;DHT22;70388;42.698;23.324;2023-06-26T18:32:04;22.50;72.80
80931;DHT22;70388;42.698;23.324;2023-06-26T18:34:30;22.40;72.60
80931;DHT22;70388;42.698;23.324;2023-06-26T18:36:56;22.20;77.30
80931;DHT22;70388;42.698;23.324;2023-06-26T18:39:24;22.10;78.20
80931;DHT22;70388;42.698;23.324;2023-06-26T18:41:50;22.20;78.10
80931;DHT22;70388;42.698;23.324;2023-06-26T18:44:15;22.10;78.70
80931;DHT22;70388;42.698;23.324;2023-06-26T18:46:42;22.00;78.90
80931;DHT22;70388;42.698;23.324;2023-06-26T18:49:08;22.20;78.00
80931;DHT22;70388;42.698;23.324;2023-06-26T18:51:34;22.40;76.70
80931;DHT22;70388;42.698;23.324;2023-06-26T18:54:00;22.40;73.90
80931;DHT22;70388;42.698;23.324;2023-06-26T18:56:33;22.50;72.90
80931;DHT22;70388;42.698;23.324;2023-06-26T18:59:02;22.50;71.50
80931;DHT22;70388;42.698;23.324;2023-06-26T19:01:28;22.60;70.50
80931;DHT22;70388;42.698;23.324;2023-06-26T19:03:53;22.80;69.70
80931;DHT22;70388;42.698;23.324;2023-06-26T19:06:19;22.90;69.30
80931;DHT22;70388;42.698;23.324;2023-06-26T19:08:45;22.90;68.80
80931;DHT22;70388;42.698;23.324;2023-06-26T19:11:11;22.80;68.20
80931;DHT22;70388;42.698;23.324;2023-06-26T19:13:36;22.90;67.70
80931;DHT22;70388;42.698;23.324;2023-06-26T19:16:02;23.00;68.00
80931;DHT22;70388;42.698;23.324;2023-06-26T19:18:28;23.00;68.00
80931;DHT22;70388;42.698;23.324;2023-06-26T19:20:54;23.00;66.60
80931;DHT22;70388;42.698;23.324;2023-06-26T19:23:19;23.10;67.00
80931;DHT22;70388;42.698;23.324;2023-06-26T19:25:46;23.00;68.00
80931;DHT22;70388;42.698;23.324;2023-06-26T19:28:12;23.10;68.20
80931;DHT22;70388;42.698;23.324;2023-06-26T19:30:41;23.10;68.10
80931;DHT22;70388;42.698;23.324;2023-06-26T19:33:06;23.00;68.90
80931;DHT22;70388;42.698;23.324;2023-06-26T19:35:32;23.00;69.60
80931;DHT22;70388;42.698;23.324;2023-06-26T19:37:58;23.00;68.30
80931;DHT22;70388;42.698;23.324;2023-06-26T19:40:31;22.80;68.10
80931;DHT22;70388;42.698;23.324;2023-06-26T19:42:57;22.80;68.20
80931;DHT22;70388;42.698;23.324;2023-06-26T19:45:23;22.60;69.10
80931;DHT22;70388;42.698;23.324;2023-06-26T19:47:48;22.50;69.50
80931;DHT22;70388;42.698;23.324;2023-06-26T19:50:15;22.50;69.50
80931;DHT22;70388;42.698;23.324;2023-06-26T19:52:41;22.50;70.30
80931;DHT22;70388;42.698;23.324;2023-06-26T19:55:07;22.50;71.10
80931;DHT22;70388;42.698;23.324;2023-06-26T19:57:33;22.50;70.40
80931;DHT22;70388;42.698;23.324;2023-06-26T19:59:58;22.40;70.90
80931;DHT22;70388;42.698;23.324;2023-06-26T20:02:24;22.40;71.20
80931;DHT22;70388;42.698;23.324;2023-06-26T20:04:49;22.40;70.90
80931;DHT22;70388;42.698;23.324;2023-06-26T20:07:15;22.20;72.10
80931;DHT22;70388;42.698;23.324;2023-06-26T20:09:41;22.20;72.90
80931;DHT22;70388;42.698;23.324;2023-06-26T20:12:06;22.10;73.50
80931;DHT22;70388;42.698;23.324;2023-06-26T20:14:32;22.20;73.40
80931;DHT22;70388;42.698;23.324;2023-06-26T20:16:58;22.00;75.00
80931;DHT22;70388;42.698;23.324;2023-06-26T20:19:24;21.90;76.50
80931;DHT22;70388;42.698;23.324;2023-06-26T20:21:51;22.00;78.00
80931;DHT22;70388;42.698;23.324;2023-06-26T20:24:17;22.00;77.30
80931;DHT22;70388;42.698;23.324;2023-06-26T20:26:43;22.10;77.40
80931;DHT22;70388;42.698;23.324;2023-06-26T20:29:09;22.10;76.90
80931;DHT22;70388;42.698;23.324;2023-06-26T20:31:35;22.00;80.10
80931;DHT22;70388;42.698;23.324;2023-06-26T20:34:00;21.90;82.30
80931;DHT22;70388;42.698;23.324;2023-06-26T20:36:26;22.00;80.90
80931;DHT22;70388;42.698;23.324;2023-06-26T20:38:52;22.00;79.00
80931;DHT22;70388;42.698;23.324;2023-06-26T20:41:18;21.90;81.10
80931;DHT22;70388;42.698;23.324;2023-06-26T20:43:43;22.00;81.00
80931;DHT22;70388;42.698;23.324;2023-06-26T20:46:09;22.10;80.70
80931;DHT22;70388;42.698;23.324;2023-06-26T20:48:35;22.10;80.60
80931;DHT22;70388;42.698;23.324;2023-06-26T20:51:02;22.00;85.30
80931;DHT22;70388;42.698;23.324;2023-06-26T20:53:28;21.80;88.00
80931;DHT22;70388;42.698;23.324;2023-06-26T20:55:54;21.70;92.50
80931;DHT22;70388;42.698;23.324;2023-06-26T20:58:20;21.60;93.40
80931;DHT22;70388;42.698;23.324;2023-06-26T21:00:46;21.60;95.80
80931;DHT22;70388;42.698;23.324;2023-06-26T21:03:11;21.50;95.80
80931;DHT22;70388;42.698;23.324;2023-06-26T21:05:37;21.40;96.60
80931;DHT22;70388;42.698;23.324;2023-06-26T21:08:02;21.40;99.90
80931;DHT22;70388;42.698;23.324;2023-06-26T21:10:28;21.40;99.90
80931;DHT22;70388;42.698;23.324;2023-06-26T21:12:54;21.50;99.90
80931;DHT22;70388;42.698;23.324;2023-06-26T21:15:19;21.50;99.90
80931;DHT22;70388;42.698;23.324;2023-06-26T21:17:45;21.40;99.90
80931;DHT22;70388;42.698;23.324;2023-06-26T21:20:11;21.40;99.90
80931;DHT22;70388;42.698;23.324;2023-06-26T21:22:36;21.30;99.90
80931;DHT22;70388;42.698;23.324;2023-06-26T21:25:02;21.30;99.90
80931;DHT22;70388;42.698;23.324;2023-06-26T21:27:29;21.20;99.90
80931;DHT22;70388;42.698;23.324;2023-06-26T21:29:55;21.10;99.90
80931;DHT22;70388;42.698;23.324;2023-06-26T21:32:21;21.00;99.90
80931;DHT22;70388;42.698;23.324;2023-06-26T21:34:48;20.80;99.90
80931;DHT22;70388;42.698;23.324;2023-06-26T21:37:14;20.60;99.90
80931;DHT22;70388;42.698;23.324;2023-06-26T21:39:39;20.60;99.90
80931;DHT22;70388;42.698;23.324;2023-06-26T21:42:07;20.60;99.90
80931;DHT22;70388;42.698;23.324;2023-06-26T21:44:33;20.50;99.90
80931;DHT22;70388;42.698;23.324;2023-06-26T21:46:59;20.40;99.90
80931;DHT22;70388;42.698;23.324;2023-06-26T21:49:24;20.60;99.90
80931;DHT22;70388;42.698;23.324;2023-06-26T21:51:50;20.70;99.90
80931;DHT22;70388;42.698;23.324;2023-06-26T21:54:16;20.80;99.90
80931;DHT22;70388;42.698;23.324;2023-06-26T21:56:41;20.90;99.90
80931;DHT22;70388;42.698;23.324;2023-06-26T21:59:07;20.90;99.90
80931;DHT22;70388;42.698;23.324;2023-06-26T22:01:33;20.90;99.90
80931;DHT22;70388;42.698;23.324;2023-06-26T22:03:58;20.80;99.90
80931;DHT22;70388;42.698;23.324;2023-06-26T22:06:24;20.90;99.90
80931;DHT22;70388;42.698;23.324;2023-06-26T22:08:50;20.80;99.90
80931;DHT22;70388;42.698;23.324;2023-06-26T22:11:15;20.90;99.90
80931;DHT22;70388;42.698;23.324;2023-06-26T22:13:41;20.90;99.90
80931;DHT22;70388;42.698;23.324;2023-06-26T22:16:08;20.90;99.90
80931;DHT22;70388;42.698;23.324;2023-06-26T22:18:33;20.80;99.90
80931;DHT22;70388;42.698;23.324;2023-06-26T22:20:59;20.80;99.90
80931;DHT22;70388;42.698;23.324;2023-06-26T22:23:25;20.80;99.90
80931;DHT22;70388;42.698;23.324;2023-06-26T22:25:50;20.80;99.90
80931;DHT22;70388;42.698;23.324;2023-06-26T22:28:17;20.80;99.90
80931;DHT22;70388;42.698;23.324;2023-06-26T22:30:43;20.80;99.90
80931;DHT22;70388;42.698;23.324;2023-06-26T22:33:09;20.80;99.90
80931;DHT22;70388;42.698;23.324;2023-06-26T22:35:34;20.80;99.90
80931;DHT22;70388;42.698;23.324;2023-06-26T22:38:00;20.80;99.90
80931;DHT22;70388;42.698;23.324;2023-06-26T22:40:26;20.80;99.90
80931;DHT22;70388;42.698;23.324;2023-06-26T22:42:51;20.80;99.90
80931;DHT22;70388;42.698;23.324;2023-06-26T22:45:17;20.70;99.90
80931;DHT22;70388;42.698;23.324;2023-06-26T22:47:43;20.60;99.90
80931;DHT22;70388;42.698;23.324;2023-06-26T22:50:11;20.60;99.90
80931;DHT22;70388;42.698;23.324;2023-06-26T22:52:37;20.50;99.90
80931;DHT22;70388;42.698;23.324;2023-06-26T22:55:03;20.40;99.90
80931;DHT22;70388;42.698;23.324;2023-06-26T22:57:30;20.40;99.90
80931;DHT22;70388;42.698;23.324;2023-06-26T22:59:55;20.40;99.90
80931;DHT22;70388;42.698;23.324;2023-06-26T23:02:21;20.30;99.90
80931;DHT22;70388;42.698;23.324;2023-06-26T23:04:47;20.20;99.90
80931;DHT22;70388;42.698;23.324;2023-06-26T23:07:14;20.10;99.90
80931;DHT22;70388;42.698;23.324;2023-06-26T23:09:43;20.10;99.90
80931;DHT22;70388;42.698;23.324;2023-06-26T23:12:08;20.10;99.90
80931;DHT22;70388;42.698;23.324;2023-06-26T23:14:34;20.10;99.90
80931;DHT22;70388;42.698;23.324;2023-06-26T23:17:00;20.10;99.90
80931;DHT22;70388;42.698;23.324;2023-06-26T23:19:37;20.10;99.90
80931;DHT22;70388;42.698;23.324;2023-06-26T23:22:04;20.20;99.90
80931;DHT22;70388;42.698;23.324;2023-06-26T23:24:34;20.30;99.90
80931;DHT22;70388;42.698;23.324;2023-06-26T23:27:02;20.20;99.90
80931;DHT22;70388;42.698;23.324;2023-06-26T23:29:28;20.20;99.90
80931;DHT22;70388;42.698;23.324;2023-06-26T23:31:54;20.10;99.90
80931;DHT22;70388;42.698;23.324;2023-06-26T23:34:20;20.10;99.90
80931;DHT22;70388;42.698;23.324;2023-06-26T23:36:46;20.10;99.90
80931;DHT22;70388;42.698;23.324;2023-06-26T23:39:15;20.10;99.90
80931;DHT22;70388;42.698;23.324;2023-06-26T23:41:42;20.10;99.90
80931;DHT22;70388;42.698;23.324;2023-06-26T23:44:07;20.10;99.90
80931;DHT22;70388;42.698;23.324;2023-06-26T23:46:33;20.00;99.90
80931;DHT22;70388;42.698;23.324;2023-06-26T23:48:58;19.80;99.90
80931;DHT22;70388;42.698;23.324;2023-06-26T23:51:24;19.70;99.90
80931;DHT22;70388;42.698;23.324;2023-06-26T23:53:50;19.70;99.90
80931;DHT22;70388;42.698;23.324;2023-06-26T23:56:16;19.70;99.90
80931;DHT22;70388;42.698;23.324;2023-06-26T23:58:41;19.70;99.90
